Time;durP1;ratioP1;P1;durP2;ratioP2;P2;SDS_P1;SDS_P2;PMS_P1;PMS_P2;Temp;Humidity;BMP_temperature;BMP_pressure;BME280_temperature;BME280_humidity;BME280_pressure;Samples;Min_cycle;Max_cycle;Signal;HPM_P1;HPM_P2
2023/01/08 00:00:04;;;;;;;4.57;4.17;;;;;;;;;;5054875;28;20239;-59
2023/01/08 00:02:30;;;;;;;5.03;4.07;;;;;;;;;;5057308;28;20235;-59
2023/01/08 00:04:58;;;;;;;4.10;3.70;;;;;;;;;;5045022;28;20246;-57
2023/01/08 00:07:24;;;;;;;4.73;4.17;;;;;;;;;;5032945;28;20319;-59
2023/01/08 00:09:51;;;;;;;6.50;5.53;;;;;;;;;;5031736;28;20237;-58
2023/01/08 00:12:18;;;;;;;4.40;3.53;;;;;;;;;;5039942;28;20235;-58
2023/01/08 00:14:44;;;;;;;5.20;3.90;;;;;;;;;;5045066;28;20252;-58
2023/01/08 00:17:11;;;;;;;3.83;3.53;;;;;;;;;;5038327;28;20847;-59
2023/01/08 00:19:40;;;;;;;4.93;4.43;;;;;;;;;;5049741;28;20263;-59
2023/01/08 00:22:08;;;;;;;4.10;3.73;;;;;;;;;;5063702;28;20249;-58
2023/01/08 00:24:34;;;;;;;5.27;3.80;;;;;;;;;;5047136;28;21074;-58
2023/01/08 00:27:00;;;;;;;4.03;3.70;;;;;;;;;;5033045;28;20246;-58
2023/01/08 00:29:28;;;;;;;4.77;4.27;;;;;;;;;;5049915;28;20244;-59
2023/01/08 00:31:54;;;;;;;4.90;4.40;;;;;;;;;;5052445;28;20302;-59
2023/01/08 00:34:21;;;;;;;5.40;4.90;;;;;;;;;;5057017;28;20234;-59
2023/01/08 00:36:47;;;;;;;5.50;4.80;;;;;;;;;;5035329;28;20700;-58
2023/01/08 00:39:15;;;;;;;4.67;4.27;;;;;;;;;;5049054;28;20245;-58
2023/01/08 00:41:44;;;;;;;6.40;5.70;;;;;;;;;;5044432;28;20319;-58
2023/01/08 00:44:10;;;;;;;5.10;4.47;;;;;;;;;;5047741;28;20239;-58
2023/01/08 00:46:37;;;;;;;5.17;4.50;;;;;;;;;;5043989;28;20244;-59
2023/01/08 00:49:03;;;;;;;5.33;4.37;;;;;;;;;;5063271;28;20410;-58
2023/01/08 00:51:29;;;;;;;4.70;4.03;;;;;;;;;;5033747;28;20233;-58
2023/01/08 00:53:56;;;;;;;4.77;4.23;;;;;;;;;;5038131;28;20232;-58
2023/01/08 00:56:23;;;;;;;4.67;4.27;;;;;;;;;;5041445;28;20323;-59
2023/01/08 00:58:50;;;;;;;4.13;3.67;;;;;;;;;;5041133;28;20235;-58
2023/01/08 01:01:16;;;;;;;5.03;4.53;;;;;;;;;;5044204;28;20656;-58
2023/01/08 01:03:43;;;;;;;5.17;4.67;;;;;;;;;;5033957;28;20231;-57
2023/01/08 01:06:11;;;;;;;4.53;4.13;;;;;;;;;;5047215;28;20240;-59
2023/01/08 01:08:37;;;;;;;4.27;3.87;;;;;;;;;;5043987;28;20297;-59
2023/01/08 01:11:06;;;;;;;4.87;4.40;;;;;;;;;;5038253;28;20705;-58
2023/01/08 01:13:34;;;;;;;4.80;4.40;;;;;;;;;;5043401;28;20243;-58
2023/01/08 01:16:01;;;;;;;6.43;4.57;;;;;;;;;;5049637;28;20242;-58
2023/01/08 01:18:27;;;;;;;5.20;4.77;;;;;;;;;;5054203;28;20232;-59
2023/01/08 01:20:54;;;;;;;4.90;4.17;;;;;;;;;;5042065;28;20231;-59
2023/01/08 01:23:21;;;;;;;4.43;4.03;;;;;;;;;;5038110;28;20244;-58
2023/01/08 01:25:47;;;;;;;5.47;4.97;;;;;;;;;;5041979;28;20238;-58
2023/01/08 01:28:15;;;;;;;4.43;4.03;;;;;;;;;;5032968;28;20243;-58
2023/01/08 01:30:43;;;;;;;4.83;4.43;;;;;;;;;;5035070;28;20916;-59
2023/01/08 01:33:09;;;;;;;5.17;4.43;;;;;;;;;;5044274;28;20248;-58
2023/01/08 01:35:36;;;;;;;5.67;5.07;;;;;;;;;;5042301;28;20235;-57
2023/01/08 01:38:02;;;;;;;4.60;4.20;;;;;;;;;;5050772;28;20233;-58
2023/01/08 01:40:29;;;;;;;6.03;4.60;;;;;;;;;;5037451;28;20315;-60
2023/01/08 01:42:56;;;;;;;5.63;4.67;;;;;;;;;;5053395;28;20231;-59
2023/01/08 01:45:23;;;;;;;6.20;4.43;;;;;;;;;;5061555;28;20287;-59
2023/01/08 01:47:54;;;;;;;6.97;4.77;;;;;;;;;;5065384;28;20257;-57
2023/01/08 01:50:22;;;;;;;6.73;4.77;;;;;;;;;;5038299;28;20238;-59
2023/01/08 01:52:52;;;;;;;5.37;4.87;;;;;;;;;;5029040;28;20307;-59
2023/01/08 01:55:18;;;;;;;6.07;4.73;;;;;;;;;;5044868;28;20323;-58
2023/01/08 01:57:47;;;;;;;5.63;5.13;;;;;;;;;;5041105;28;20236;-58
2023/01/08 02:00:14;;;;;;;5.83;5.30;;;;;;;;;;5046411;28;20241;-58
2023/01/08 02:02:40;;;;;;;5.40;4.87;;;;;;;;;;5055235;28;20231;-58
2023/01/08 02:05:09;;;;;;;6.00;5.47;;;;;;;;;;5041258;28;20236;-58
2023/01/08 02:07:40;;;;;;;5.80;5.30;;;;;;;;;;5053002;28;20289;-58
2023/01/08 02:10:10;;;;;;;5.43;4.93;;;;;;;;;;5038893;28;20259;-57
2023/01/08 02:12:39;;;;;;;5.73;5.23;;;;;;;;;;5040633;28;20233;-58
2023/01/08 02:15:11;;;;;;;6.27;4.80;;;;;;;;;;5045897;28;20238;-58
2023/01/08 02:17:41;;;;;;;6.03;5.43;;;;;;;;;;5050362;28;20776;-58
2023/01/08 02:20:11;;;;;;;5.77;5.27;;;;;;;;;;5039783;28;20318;-60
2023/01/08 02:22:44;;;;;;;5.47;4.97;;;;;;;;;;5030235;28;20320;-58
2023/01/08 02:25:13;;;;;;;6.83;4.93;;;;;;;;;;5043268;28;20240;-59
2023/01/08 02:27:42;;;;;;;5.77;5.27;;;;;;;;;;5040439;28;20239;-58
2023/01/08 02:30:10;;;;;;;5.60;5.07;;;;;;;;;;5049081;28;20318;-58
2023/01/08 02:32:37;;;;;;;5.90;5.30;;;;;;;;;;5044105;28;20319;-58
2023/01/08 02:35:04;;;;;;;6.67;5.83;;;;;;;;;;5043129;28;20282;-58
2023/01/08 02:37:31;;;;;;;6.23;5.73;;;;;;;;;;5032528;28;20279;-58
2023/01/08 02:40:04;;;;;;;6.37;5.77;;;;;;;;;;5034163;28;20235;-58
2023/01/08 02:42:35;;;;;;;5.77;5.27;;;;;;;;;;5063551;28;20231;-58
2023/01/08 02:45:06;;;;;;;6.27;5.67;;;;;;;;;;5042101;28;20231;-58
2023/01/08 02:47:34;;;;;;;6.20;5.60;;;;;;;;;;5042390;28;20699;-60
2023/01/08 02:50:04;;;;;;;6.80;6.20;;;;;;;;;;5028337;28;20710;-58
2023/01/08 02:52:32;;;;;;;5.73;5.23;;;;;;;;;;5030644;28;20232;-58
2023/01/08 02:55:01;;;;;;;5.83;5.30;;;;;;;;;;5031724;28;20251;-62
2023/01/08 02:57:29;;;;;;;6.30;5.73;;;;;;;;;;5034574;28;20242;-58
2023/01/08 02:59:57;;;;;;;6.47;5.80;;;;;;;;;;5034744;28;20244;-57
2023/01/08 03:02:26;;;;;;;6.50;5.90;;;;;;;;;;5037439;28;20347;-57
2023/01/08 03:04:54;;;;;;;5.80;5.30;;;;;;;;;;5035458;28;20259;-58
2023/01/08 03:07:21;;;;;;;6.40;5.80;;;;;;;;;;5040206;28;20236;-59
2023/01/08 03:09:48;;;;;;;6.37;5.57;;;;;;;;;;5036116;28;20228;-58
2023/01/08 03:12:17;;;;;;;6.40;5.80;;;;;;;;;;5042176;28;20289;-58
2023/01/08 03:14:46;;;;;;;6.73;6.13;;;;;;;;;;5040684;28;20227;-59
2023/01/08 03:17:17;;;;;;;6.50;5.83;;;;;;;;;;5052045;28;20247;-57
2023/01/08 03:19:48;;;;;;;6.70;6.10;;;;;;;;;;5036714;28;20228;-58
2023/01/08 03:22:17;;;;;;;7.30;6.70;;;;;;;;;;5033497;28;20267;-57
2023/01/08 03:24:47;;;;;;;7.33;6.50;;;;;;;;;;5036575;28;20231;-58
2023/01/08 03:27:16;;;;;;;6.60;6.00;;;;;;;;;;5036096;28;20318;-59
2023/01/08 03:29:43;;;;;;;6.80;6.10;;;;;;;;;;5032402;28;20235;-58
2023/01/08 03:32:13;;;;;;;7.37;6.57;;;;;;;;;;5036492;28;20240;-58
2023/01/08 03:34:41;;;;;;;7.30;6.60;;;;;;;;;;5051907;28;20234;-57
2023/01/08 03:37:10;;;;;;;7.87;7.07;;;;;;;;;;5052867;28;20250;-58
2023/01/08 03:39:40;;;;;;;7.37;6.50;;;;;;;;;;5040907;28;20275;-58
2023/01/08 03:42:08;;;;;;;7.90;6.57;;;;;;;;;;5046695;28;20241;-58
2023/01/08 03:44:35;;;;;;;7.50;6.67;;;;;;;;;;5040764;28;20224;-58
2023/01/08 03:47:03;;;;;;;6.60;5.93;;;;;;;;;;5036492;28;20930;-57
2023/01/08 03:49:29;;;;;;;6.73;6.20;;;;;;;;;;5030914;28;20789;-59
2023/01/08 03:51:56;;;;;;;7.20;6.50;;;;;;;;;;5032544;28;20323;-58
2023/01/08 03:54:26;;;;;;;6.80;6.10;;;;;;;;;;5025609;28;20295;-57
2023/01/08 03:56:52;;;;;;;7.67;6.60;;;;;;;;;;5023306;28;20232;-58
2023/01/08 03:59:19;;;;;;;7.23;6.30;;;;;;;;;;5032250;28;20239;-58
2023/01/08 04:01:46;;;;;;;8.37;6.07;;;;;;;;;;5059231;28;20236;-58
2023/01/08 04:04:12;;;;;;;7.90;7.17;;;;;;;;;;5050830;28;20623;-58
2023/01/08 04:06:39;;;;;;;7.43;6.73;;;;;;;;;;5043172;28;20255;-58
2023/01/08 04:09:06;;;;;;;7.23;6.53;;;;;;;;;;5038962;28;20228;-59
2023/01/08 04:11:34;;;;;;;7.37;6.63;;;;;;;;;;5042381;28;20228;-59
2023/01/08 04:14:01;;;;;;;7.07;6.37;;;;;;;;;;5042739;28;20236;-59
2023/01/08 04:16:27;;;;;;;7.90;7.20;;;;;;;;;;5053105;28;20292;-59
2023/01/08 04:18:54;;;;;;;7.10;6.50;;;;;;;;;;5049613;28;20224;-58
2023/01/08 04:21:21;;;;;;;7.83;6.73;;;;;;;;;;5046477;28;20261;-59
2023/01/08 04:23:47;;;;;;;7.20;6.50;;;;;;;;;;5034490;28;20316;-59
2023/01/08 04:26:14;;;;;;;7.10;6.40;;;;;;;;;;5041637;28;20947;-58
2023/01/08 04:28:42;;;;;;;7.43;6.73;;;;;;;;;;5032674;28;20238;-59
2023/01/08 04:31:09;;;;;;;7.97;7.23;;;;;;;;;;5041095;28;20309;-60
2023/01/08 04:33:36;;;;;;;8.33;7.27;;;;;;;;;;5058824;28;20235;-59
2023/01/08 04:36:03;;;;;;;9.77;6.90;;;;;;;;;;5056074;28;20698;-58
2023/01/08 04:38:29;;;;;;;6.80;6.20;;;;;;;;;;5042685;28;20254;-58
2023/01/08 04:40:57;;;;;;;9.47;7.00;;;;;;;;;;5049619;28;20263;-60
2023/01/08 04:43:23;;;;;;;8.40;7.20;;;;;;;;;;5043117;28;20236;-58
2023/01/08 04:45:51;;;;;;;7.03;6.43;;;;;;;;;;5029090;28;20959;-58
2023/01/08 04:48:18;;;;;;;7.23;6.50;;;;;;;;;;5053551;28;20254;-58
2023/01/08 04:50:45;;;;;;;8.43;7.10;;;;;;;;;;5041338;28;20259;-57
2023/01/08 04:53:11;;;;;;;8.50;7.30;;;;;;;;;;5039334;28;20232;-57
2023/01/08 04:55:38;;;;;;;7.30;6.53;;;;;;;;;;5036674;28;20233;-59
2023/01/08 04:58:05;;;;;;;7.73;6.97;;;;;;;;;;5058123;28;20338;-60
2023/01/08 05:00:31;;;;;;;7.87;7.07;;;;;;;;;;5057577;28;20241;-58
2023/01/08 05:03:00;;;;;;;7.53;6.63;;;;;;;;;;5056560;28;20247;-58
2023/01/08 05:05:26;;;;;;;9.07;6.83;;;;;;;;;;5038772;28;20778;-58
2023/01/08 05:07:53;;;;;;;7.20;6.60;;;;;;;;;;5045703;28;20295;-59
2023/01/08 05:10:20;;;;;;;8.47;6.63;;;;;;;;;;5045901;28;20232;-58
2023/01/08 05:12:47;;;;;;;7.80;6.27;;;;;;;;;;5048089;28;20236;-58
2023/01/08 05:15:13;;;;;;;7.07;6.33;;;;;;;;;;5062349;28;20253;-60
2023/01/08 05:17:40;;;;;;;7.27;6.57;;;;;;;;;;5039252;28;20228;-59
2023/01/08 05:20:09;;;;;;;7.13;6.43;;;;;;;;;;5046042;28;20236;-63
2023/01/08 05:22:35;;;;;;;6.80;6.20;;;;;;;;;;5052677;28;20236;-59
2023/01/08 05:25:02;;;;;;;9.07;6.17;;;;;;;;;;5053960;28;20258;-58
2023/01/08 05:27:29;;;;;;;7.37;6.67;;;;;;;;;;5058249;28;20239;-57
2023/01/08 05:29:56;;;;;;;6.77;6.17;;;;;;;;;;5064722;28;20258;-58
2023/01/08 05:32:23;;;;;;;6.47;5.87;;;;;;;;;;5072197;28;20784;-59
2023/01/08 05:34:49;;;;;;;6.63;6.03;;;;;;;;;;5080821;28;20238;-58
2023/01/08 05:37:17;;;;;;;6.90;6.27;;;;;;;;;;5059812;28;20236;-58
2023/01/08 05:39:44;;;;;;;6.63;6.07;;;;;;;;;;5061177;28;20254;-58
2023/01/08 05:42:11;;;;;;;7.40;6.37;;;;;;;;;;5071513;28;20238;-58
2023/01/08 05:44:37;;;;;;;6.70;6.00;;;;;;;;;;5084807;28;20301;-59
2023/01/08 05:47:04;;;;;;;7.20;6.50;;;;;;;;;;5062878;28;20311;-58
2023/01/08 05:49:30;;;;;;;6.87;6.17;;;;;;;;;;5058035;28;20251;-61
2023/01/08 05:51:57;;;;;;;6.10;5.60;;;;;;;;;;5041544;28;20235;-60
2023/01/08 05:54:25;;;;;;;6.50;5.90;;;;;;;;;;5059030;28;20227;-59
2023/01/08 05:56:52;;;;;;;6.23;5.67;;;;;;;;;;5056497;28;20235;-59
2023/01/08 05:59:18;;;;;;;6.60;5.73;;;;;;;;;;5054495;28;20274;-58
2023/01/08 06:01:45;;;;;;;6.83;5.90;;;;;;;;;;5074937;28;20239;-59
2023/01/08 06:04:12;;;;;;;6.30;5.70;;;;;;;;;;5052591;28;20247;-58
2023/01/08 06:06:38;;;;;;;7.17;5.40;;;;;;;;;;5053353;28;20239;-60
2023/01/08 06:09:05;;;;;;;5.43;4.93;;;;;;;;;;5051663;28;20235;-58
2023/01/08 06:11:33;;;;;;;6.70;5.53;;;;;;;;;;5033428;28;20232;-58
2023/01/08 06:13:59;;;;;;;6.80;6.20;;;;;;;;;;5041892;28;20271;-58
2023/01/08 06:16:26;;;;;;;6.23;5.63;;;;;;;;;;5059377;28;20244;-58
2023/01/08 06:18:53;;;;;;;6.80;6.10;;;;;;;;;;5068078;28;20227;-58
2023/01/08 06:21:19;;;;;;;5.80;5.20;;;;;;;;;;5062564;28;20231;-58
2023/01/08 06:23:46;;;;;;;5.57;5.00;;;;;;;;;;5066641;28;20251;-58
2023/01/08 06:26:12;;;;;;;7.97;5.60;;;;;;;;;;5058042;28;20284;-58
2023/01/08 06:28:40;;;;;;;5.70;5.20;;;;;;;;;;5054991;28;20294;-59
2023/01/08 06:31:07;;;;;;;5.93;5.43;;;;;;;;;;5048408;28;20231;-58
2023/01/08 06:33:33;;;;;;;6.83;6.13;;;;;;;;;;5032672;28;20231;-59
2023/01/08 06:36:01;;;;;;;5.67;4.93;;;;;;;;;;5072886;28;20293;-58
2023/01/08 06:38:30;;;;;;;7.70;5.03;;;;;;;;;;5052578;28;20742;-58
2023/01/08 06:40:56;;;;;;;6.30;5.37;;;;;;;;;;5037242;28;20255;-58
2023/01/08 06:43:23;;;;;;;7.00;5.67;;;;;;;;;;5049692;28;20243;-57
2023/01/08 06:45:54;;;;;;;5.70;5.20;;;;;;;;;;5038779;28;20234;-58
2023/01/08 06:48:21;;;;;;;6.10;5.50;;;;;;;;;;5038963;28;20255;-58
2023/01/08 06:50:47;;;;;;;6.63;5.43;;;;;;;;;;5036660;28;20631;-59
2023/01/08 06:53:14;;;;;;;5.20;4.70;;;;;;;;;;5037314;28;20239;-58
2023/01/08 06:55:41;;;;;;;5.53;5.00;;;;;;;;;;5041852;28;20232;-58
2023/01/08 06:58:09;;;;;;;5.50;5.00;;;;;;;;;;5039369;28;20614;-60
2023/01/08 07:00:36;;;;;;;5.53;5.03;;;;;;;;;;5059102;28;20227;-58
2023/01/08 07:03:04;;;;;;;4.80;4.40;;;;;;;;;;5044115;28;20289;-58
2023/01/08 07:05:46;;;;;;;5.10;4.60;;;;;;;;;;5034271;28;20236;-57
2023/01/08 07:08:16;;;;;;;5.77;5.23;;;;;;;;;;5035858;28;20228;-60
2023/01/08 07:10:59;;;;;;;5.53;5.03;;;;;;;;;;5046688;28;20230;-58
2023/01/08 07:13:26;;;;;;;5.70;5.20;;;;;;;;;;5046697;28;20239;-59
2023/01/08 07:16:04;;;;;;;6.50;5.93;;;;;;;;;;5052685;28;20243;-62
2023/01/08 07:18:32;;;;;;;6.27;5.67;;;;;;;;;;5046779;28;20315;-58
2023/01/08 07:20:59;;;;;;;6.10;5.10;;;;;;;;;;5040832;28;20239;-59
2023/01/08 07:23:25;;;;;;;5.20;4.70;;;;;;;;;;5060556;28;20242;-59
2023/01/08 07:25:52;;;;;;;4.73;4.27;;;;;;;;;;5061065;28;20231;-58
2023/01/08 07:28:19;;;;;;;7.63;4.97;;;;;;;;;;5066074;28;20231;-58
2023/01/08 07:30:46;;;;;;;6.37;5.03;;;;;;;;;;5057017;28;20232;-58
2023/01/08 07:33:12;;;;;;;5.60;5.10;;;;;;;;;;5066298;28;20351;-59
2023/01/08 07:35:40;;;;;;;5.63;5.13;;;;;;;;;;5075353;28;20243;-59
2023/01/08 07:38:07;;;;;;;7.07;5.03;;;;;;;;;;5035071;28;20227;-58
2023/01/08 07:40:34;;;;;;;4.90;4.50;;;;;;;;;;5049603;28;20242;-57
2023/01/08 07:43:05;;;;;;;6.70;6.00;;;;;;;;;;5039475;28;20244;-58
2023/01/08 07:45:35;;;;;;;5.23;4.77;;;;;;;;;;5047078;28;20690;-58
2023/01/08 07:48:02;;;;;;;5.63;5.10;;;;;;;;;;5046326;28;20232;-58
2023/01/08 07:50:28;;;;;;;5.43;4.90;;;;;;;;;;5044083;28;20235;-59
2023/01/08 07:53:00;;;;;;;5.20;4.70;;;;;;;;;;5042407;28;20638;-61
2023/01/08 07:55:26;;;;;;;5.90;5.30;;;;;;;;;;5043967;28;20232;-59
2023/01/08 07:58:06;;;;;;;6.40;4.70;;;;;;;;;;5045001;28;20641;-58
2023/01/08 08:00:33;;;;;;;5.23;4.73;;;;;;;;;;5063676;28;20234;-59
2023/01/08 08:03:02;;;;;;;4.93;4.53;;;;;;;;;;5049062;28;20238;-58
2023/01/08 08:05:28;;;;;;;5.53;5.03;;;;;;;;;;5056430;28;20227;-59
2023/01/08 08:07:55;;;;;;;5.63;4.67;;;;;;;;;;5043303;28;20258;-59
2023/01/08 08:10:23;;;;;;;5.47;4.97;;;;;;;;;;5050427;28;20339;-58
2023/01/08 08:12:49;;;;;;;5.90;5.30;;;;;;;;;;5046275;28;20232;-59
2023/01/08 08:15:16;;;;;;;5.97;4.67;;;;;;;;;;5052686;28;20235;-58
2023/01/08 08:17:44;;;;;;;6.07;5.57;;;;;;;;;;5062540;28;20231;-58
2023/01/08 08:20:11;;;;;;;7.87;4.93;;;;;;;;;;5067378;28;20234;-59
2023/01/08 08:22:38;;;;;;;7.40;5.63;;;;;;;;;;5049500;28;20239;-58
2023/01/08 08:25:04;;;;;;;6.07;5.40;;;;;;;;;;5037436;28;20237;-58
2023/01/08 08:27:32;;;;;;;6.83;6.13;;;;;;;;;;5067713;28;20262;-58
2023/01/08 08:29:59;;;;;;;6.80;5.70;;;;;;;;;;5041238;28;20244;-57
2023/01/08 08:32:25;;;;;;;6.03;5.53;;;;;;;;;;5060050;28;20231;-60
2023/01/08 08:34:52;;;;;;;6.10;5.60;;;;;;;;;;5067297;28;20250;-58
2023/01/08 08:37:18;;;;;;;6.03;5.43;;;;;;;;;;5035595;28;20311;-58
2023/01/08 08:39:45;;;;;;;6.37;5.43;;;;;;;;;;5042588;28;20836;-57
2023/01/08 08:42:12;;;;;;;6.37;5.17;;;;;;;;;;5057362;28;20238;-58
2023/01/08 08:44:40;;;;;;;5.83;5.33;;;;;;;;;;5043078;28;20235;-59
2023/01/08 08:47:07;;;;;;;7.10;5.23;;;;;;;;;;5054319;28;20244;-58
2023/01/08 08:49:33;;;;;;;6.30;4.60;;;;;;;;;;5036972;28;20239;-58
2023/01/08 08:52:00;;;;;;;6.47;5.87;;;;;;;;;;5039696;28;20293;-58
2023/01/08 08:54:26;;;;;;;6.43;5.10;;;;;;;;;;5040391;28;20773;-58
2023/01/08 08:56:53;;;;;;;5.93;5.33;;;;;;;;;;5042891;28;20261;-58
2023/01/08 08:59:19;;;;;;;5.93;5.33;;;;;;;;;;5041214;28;20331;-58
2023/01/08 09:01:47;;;;;;;4.67;4.27;;;;;;;;;;5064669;28;20232;-58
2023/01/08 09:04:14;;;;;;;5.20;4.70;;;;;;;;;;5035920;28;20235;-58
2023/01/08 09:06:40;;;;;;;6.27;5.67;;;;;;;;;;5043547;28;20260;-61
2023/01/08 09:09:07;;;;;;;5.83;5.33;;;;;;;;;;5050957;28;20235;-63
2023/01/08 09:11:33;;;;;;;5.33;4.83;;;;;;;;;;5044011;28;20232;-60
2023/01/08 09:14:00;;;;;;;5.60;4.90;;;;;;;;;;5055293;28;20235;-58
2023/01/08 09:16:27;;;;;;;5.37;4.97;;;;;;;;;;5060697;28;20227;-58
2023/01/08 09:18:55;;;;;;;5.83;5.20;;;;;;;;;;5066565;28;20313;-58
2023/01/08 09:21:22;;;;;;;6.10;5.50;;;;;;;;;;5048630;28;20240;-58
2023/01/08 09:23:49;;;;;;;5.13;4.67;;;;;;;;;;5026874;28;20722;-58
2023/01/08 09:26:16;;;;;;;5.30;4.83;;;;;;;;;;5034662;28;20603;-58
2023/01/08 09:28:42;;;;;;;5.10;4.60;;;;;;;;;;5025781;28;20281;-57
2023/01/08 09:31:09;;;;;;;5.43;4.60;;;;;;;;;;5036835;28;20276;-59
2023/01/08 09:33:35;;;;;;;4.70;4.30;;;;;;;;;;5053724;28;20239;-59
2023/01/08 09:36:03;;;;;;;5.23;4.83;;;;;;;;;;5054493;28;20256;-58
2023/01/08 09:38:30;;;;;;;5.37;4.27;;;;;;;;;;5037843;28;20255;-58
2023/01/08 09:40:58;;;;;;;6.43;4.93;;;;;;;;;;5046533;28;20220;-58
2023/01/08 09:43:26;;;;;;;5.40;4.90;;;;;;;;;;5044621;28;20228;-59
2023/01/08 09:45:55;;;;;;;6.37;4.97;;;;;;;;;;5047769;28;20232;-58
2023/01/08 09:48:24;;;;;;;6.43;5.03;;;;;;;;;;5045857;28;20237;-58
2023/01/08 09:50:50;;;;;;;6.13;5.17;;;;;;;;;;5041363;28;20252;-58
2023/01/08 09:53:19;;;;;;;4.90;4.50;;;;;;;;;;5031153;28;20240;-58
2023/01/08 09:55:55;;;;;;;6.07;4.63;;;;;;;;;;5049396;28;20244;-58
2023/01/08 09:58:27;;;;;;;6.10;4.43;;;;;;;;;;5046486;28;20609;-57
2023/01/08 10:00:54;;;;;;;5.70;5.20;;;;;;;;;;5043547;28;20227;-58
2023/01/08 10:03:25;;;;;;;4.97;4.53;;;;;;;;;;5045736;28;20614;-57
2023/01/08 10:05:52;;;;;;;6.50;4.93;;;;;;;;;;5037949;28;20605;-57
2023/01/08 10:08:20;;;;;;;7.13;5.00;;;;;;;;;;5039125;28;20286;-58
2023/01/08 10:10:47;;;;;;;5.17;4.70;;;;;;;;;;5045467;28;20231;-58
2023/01/08 10:13:14;;;;;;;4.60;4.20;;;;;;;;;;5030614;28;20337;-57
2023/01/08 10:15:41;;;;;;;6.23;5.63;;;;;;;;;;5033121;28;20229;-59
2023/01/08 10:18:11;;;;;;;5.47;4.97;;;;;;;;;;5028811;28;20232;-59
2023/01/08 10:20:38;;;;;;;6.73;5.70;;;;;;;;;;5033988;28;20236;-57
2023/01/08 10:23:14;;;;;;;7.07;5.30;;;;;;;;;;5044469;28;20236;-57
2023/01/08 10:25:50;;;;;;;5.50;5.00;;;;;;;;;;5056607;28;20249;-59
2023/01/08 10:28:18;;;;;;;6.47;5.87;;;;;;;;;;5039336;28;20232;-58
2023/01/08 10:30:45;;;;;;;7.23;6.20;;;;;;;;;;5052636;28;20254;-59
2023/01/08 10:33:15;;;;;;;7.03;6.03;;;;;;;;;;5040971;28;20234;-58
2023/01/08 10:35:42;;;;;;;7.80;7.07;;;;;;;;;;5053994;28;20729;-59
2023/01/08 10:38:23;;;;;;;8.30;6.63;;;;;;;;;;5040698;28;20721;-58
2023/01/08 10:40:52;;;;;;;8.53;6.80;;;;;;;;;;5054092;28;20228;-59
2023/01/08 10:43:19;;;;;;;7.37;6.53;;;;;;;;;;5058703;28;20340;-61
2023/01/08 10:45:54;;;;;;;7.33;6.63;;;;;;;;;;5054133;28;20236;-60
2023/01/08 10:48:21;;;;;;;8.40;7.60;;;;;;;;;;5044971;28;20752;-59
2023/01/08 10:50:48;;;;;;;8.37;7.63;;;;;;;;;;5046909;28;20239;-59
2023/01/08 10:53:25;;;;;;;7.97;7.17;;;;;;;;;;5046819;28;20235;-60
2023/01/08 10:55:58;;;;;;;7.90;7.10;;;;;;;;;;5055577;28;20247;-59
2023/01/08 10:58:27;;;;;;;9.23;8.33;;;;;;;;;;5029837;28;20259;-60
2023/01/08 11:00:53;;;;;;;11.23;8.67;;;;;;;;;;5036702;28;20763;-59
2023/01/08 11:03:23;;;;;;;9.00;8.10;;;;;;;;;;5051720;28;20255;-58
2023/01/08 11:05:50;;;;;;;8.20;7.40;;;;;;;;;;5041660;28;20277;-58
2023/01/08 11:08:18;;;;;;;9.07;8.17;;;;;;;;;;5051872;28;20235;-59
2023/01/08 11:10:53;;;;;;;9.23;8.23;;;;;;;;;;5049810;28;20244;-59
2023/01/08 11:13:21;;;;;;;12.57;9.37;;;;;;;;;;5060041;28;20515;-59
2023/01/08 11:15:58;;;;;;;9.57;8.57;;;;;;;;;;5062039;28;20227;-58
2023/01/08 11:18:25;;;;;;;8.90;7.90;;;;;;;;;;5047436;28;20792;-59
2023/01/08 11:20:53;;;;;;;9.50;8.60;;;;;;;;;;5051994;28;20319;-59
2023/01/08 11:23:21;;;;;;;9.27;8.37;;;;;;;;;;5047342;28;20616;-59
2023/01/08 11:25:50;;;;;;;9.60;8.47;;;;;;;;;;5048489;28;20251;-57
2023/01/08 11:28:20;;;;;;;9.47;7.90;;;;;;;;;;5041301;28;20290;-58
2023/01/08 11:30:53;;;;;;;9.30;7.47;;;;;;;;;;5035397;28;20239;-57
2023/01/08 11:33:22;;;;;;;9.03;8.13;;;;;;;;;;5047970;28;20775;-58
2023/01/08 11:35:50;;;;;;;7.73;7.03;;;;;;;;;;5049263;28;20260;-58
2023/01/08 11:38:17;;;;;;;9.17;8.23;;;;;;;;;;5047277;28;20236;-57
2023/01/08 11:40:46;;;;;;;8.73;7.83;;;;;;;;;;5047860;28;20239;-58
2023/01/08 11:43:18;;;;;;;8.40;7.60;;;;;;;;;;5057533;28;20240;-57
2023/01/08 11:45:54;;;;;;;8.67;7.77;;;;;;;;;;5046551;28;20231;-57
2023/01/08 11:48:31;;;;;;;7.83;7.10;;;;;;;;;;5042022;28;20899;-57
2023/01/08 11:51:13;;;;;;;8.57;7.77;;;;;;;;;;5044675;28;20235;-58
2023/01/08 11:53:42;;;;;;;8.50;7.10;;;;;;;;;;5049192;28;20319;-58
2023/01/08 11:56:14;;;;;;;7.40;6.63;;;;;;;;;;5046742;28;20228;-58
2023/01/08 11:58:50;;;;;;;7.23;6.53;;;;;;;;;;5049135;28;20236;-57
2023/01/08 12:01:25;;;;;;;7.70;6.30;;;;;;;;;;5056326;28;20235;-58
2023/01/08 12:03:54;;;;;;;6.53;5.80;;;;;;;;;;5057406;28;20243;-58
2023/01/08 12:06:28;;;;;;;7.50;6.80;;;;;;;;;;5064334;28;20258;-57
2023/01/08 12:08:57;;;;;;;7.13;5.70;;;;;;;;;;5054081;28;20239;-57
2023/01/08 12:11:25;;;;;;;7.23;6.63;;;;;;;;;;5028879;28;20235;-57
2023/01/08 12:13:58;;;;;;;6.27;5.77;;;;;;;;;;5052005;28;20680;-57
2023/01/08 12:16:34;;;;;;;7.27;6.57;;;;;;;;;;5062296;28;20934;-58
2023/01/08 12:19:09;;;;;;;6.00;5.50;;;;;;;;;;5051048;28;20237;-57
2023/01/08 12:21:41;;;;;;;6.97;6.33;;;;;;;;;;5043723;28;20889;-57
2023/01/08 12:24:14;;;;;;;8.03;6.27;;;;;;;;;;5057658;28;20234;-56
2023/01/08 12:26:46;;;;;;;6.87;6.03;;;;;;;;;;5039698;28;20338;-56
2023/01/08 12:29:32;;;;;;;7.97;5.47;;;;;;;;;;5046907;28;20709;-57
2023/01/08 12:32:14;;;;;;;7.60;6.90;;;;;;;;;;5034256;28;20244;-57
2023/01/08 12:34:49;;;;;;;6.47;5.80;;;;;;;;;;5044836;28;20235;-57
2023/01/08 12:37:19;;;;;;;6.33;5.77;;;;;;;;;;5040990;28;20231;-56
2023/01/08 12:39:51;;;;;;;7.77;6.20;;;;;;;;;;5044107;28;20710;-57
2023/01/08 12:42:23;;;;;;;7.30;6.63;;;;;;;;;;5039334;28;20457;-57
2023/01/08 12:44:51;;;;;;;6.40;5.80;;;;;;;;;;5051726;28;20239;-56
2023/01/08 12:47:21;;;;;;;6.40;5.80;;;;;;;;;;5042539;28;20228;-57
2023/01/08 12:49:50;;;;;;;6.53;5.93;;;;;;;;;;5037902;28;20765;-58
2023/01/08 12:52:21;;;;;;;7.53;6.13;;;;;;;;;;5030604;28;20240;-57
2023/01/08 12:54:50;;;;;;;5.77;5.20;;;;;;;;;;5038103;28;20243;-57
2023/01/08 12:57:21;;;;;;;5.40;4.90;;;;;;;;;;5038666;28;20252;-57
2023/01/08 12:59:51;;;;;;;5.90;5.30;;;;;;;;;;5038673;28;20232;-57
2023/01/08 13:02:26;;;;;;;6.30;5.70;;;;;;;;;;5048238;28;20998;-56
2023/01/08 13:04:52;;;;;;;5.47;4.97;;;;;;;;;;5056805;28;20360;-57
2023/01/08 13:07:20;;;;;;;6.27;5.57;;;;;;;;;;5063852;28;20257;-57
2023/01/08 13:09:54;;;;;;;5.87;5.10;;;;;;;;;;5068963;28;20239;-57
2023/01/08 13:12:26;;;;;;;6.33;5.73;;;;;;;;;;5054845;28;20739;-56
2023/01/08 13:14:53;;;;;;;7.33;5.27;;;;;;;;;;5058173;28;20249;-57
2023/01/08 13:17:23;;;;;;;5.97;5.40;;;;;;;;;;5075330;28;20243;-57
2023/01/08 13:19:52;;;;;;;6.33;5.73;;;;;;;;;;5066828;28;20259;-56
2023/01/08 13:22:24;;;;;;;6.40;5.53;;;;;;;;;;5057514;28;20272;-56
2023/01/08 13:24:50;;;;;;;6.30;5.70;;;;;;;;;;5046896;28;20224;-57
2023/01/08 13:27:28;;;;;;;6.57;5.97;;;;;;;;;;5047707;28;20227;-58
2023/01/08 13:29:56;;;;;;;6.50;5.80;;;;;;;;;;5054203;28;20728;-57
2023/01/08 13:32:26;;;;;;;7.40;6.33;;;;;;;;;;5046760;28;20235;-57
2023/01/08 13:35:03;;;;;;;6.60;5.53;;;;;;;;;;5062465;28;20227;-57
2023/01/08 13:37:30;;;;;;;6.97;6.37;;;;;;;;;;5052147;28;20904;-57
2023/01/08 13:39:57;;;;;;;5.73;5.13;;;;;;;;;;5047386;28;20231;-56
2023/01/08 13:42:27;;;;;;;7.67;6.70;;;;;;;;;;5048108;28;20243;-57
2023/01/08 13:44:57;;;;;;;5.57;5.07;;;;;;;;;;5047392;28;20231;-57
2023/01/08 13:47:29;;;;;;;7.13;6.43;;;;;;;;;;5054839;28;20223;-57
2023/01/08 13:49:56;;;;;;;9.03;7.27;;;;;;;;;;5047487;28;20318;-57
2023/01/08 13:52:40;;;;;;;8.53;6.90;;;;;;;;;;5047198;28;20236;-56
2023/01/08 13:55:13;;;;;;;7.33;6.63;;;;;;;;;;5058385;28;20239;-57
2023/01/08 13:57:42;;;;;;;9.33;6.87;;;;;;;;;;5055968;28;20232;-57
2023/01/08 14:00:10;;;;;;;11.10;7.80;;;;;;;;;;5055767;28;20223;-57
2023/01/08 14:02:48;;;;;;;6.30;5.70;;;;;;;;;;5060209;28;20242;-57
2023/01/08 14:05:20;;;;;;;8.37;7.50;;;;;;;;;;5053013;28;20242;-56
2023/01/08 14:07:47;;;;;;;6.97;6.27;;;;;;;;;;5053352;28;20892;-57
2023/01/08 14:10:14;;;;;;;7.60;6.80;;;;;;;;;;5055631;28;20239;-56
2023/01/08 14:12:40;;;;;;;7.90;7.10;;;;;;;;;;5047072;28;20239;-59
2023/01/08 14:15:10;;;;;;;8.50;7.70;;;;;;;;;;5063567;28;20666;-57
2023/01/08 14:17:37;;;;;;;8.00;7.20;;;;;;;;;;5036450;28;20631;-57
2023/01/08 14:20:09;;;;;;;7.63;6.87;;;;;;;;;;5049718;28;20338;-57
2023/01/08 14:22:36;;;;;;;7.23;6.53;;;;;;;;;;5042716;28;20228;-57
2023/01/08 14:25:03;;;;;;;7.67;6.33;;;;;;;;;;5059180;28;22777;-57
2023/01/08 14:27:30;;;;;;;8.20;7.40;;;;;;;;;;5060339;28;20234;-57
2023/01/08 14:29:57;;;;;;;7.70;6.97;;;;;;;;;;5053025;28;20321;-57
2023/01/08 14:32:25;;;;;;;7.50;6.57;;;;;;;;;;5057128;28;20584;-57
2023/01/08 14:34:52;;;;;;;7.83;7.03;;;;;;;;;;5054021;28;20235;-61
2023/01/08 14:37:21;;;;;;;8.47;6.57;;;;;;;;;;5064667;28;20220;-57
2023/01/08 14:39:50;;;;;;;9.60;7.13;;;;;;;;;;5054474;28;20776;-56
2023/01/08 14:45:04;;;;;;;8.57;6.13;;;;;;;;;;5048668;28;20357;-56
2023/01/08 14:47:33;;;;;;;7.93;7.13;;;;;;;;;;5051853;28;20231;-57
2023/01/08 14:50:00;;;;;;;7.67;6.97;;;;;;;;;;5055204;28;20322;-57
2023/01/08 14:52:28;;;;;;;9.23;7.30;;;;;;;;;;5046083;28;20607;-57